< < Back
Terminal Aerodrome Forecast


Current Version              Previous Versions:   1  2  3  4  5  6  7  8  9  

Terminal Aerodrome Forecast

721
FTUS42 KTAE 290800 AAC
TAFVLD
TAF AMD
KVLD 290800Z 2908/3006 26005KT 4SM BR BKN003
      TEMPO 2908/2912 00000KT 1/2SM FG OVC002
     FM291500 21006KT P6SM BKN250=

Latest METAR

714
SAUS70 KWBC 292300
MTRVLD
METAR KVLD 292253Z 00000KT 10SM CLR 27/23 A3000 RMK AO2 SLP164
T02720228


USA.gov is the U.S. government's official web portal to all federal, state and local government web resources and services.